Time;durP1;ratioP1;P1;durP2;ratioP2;P2;SDS_P1;SDS_P2;PMS_P1;PMS_P2;Temp;Humidity;BMP_temperature;BMP_pressure;BME280_temperature;BME280_humidity;BME280_pressure;Samples;Min_cycle;Max_cycle;Signal;HPM_P1;HPM_P2
2022/07/03 02:04:20;;;;;;;9.60;6.33;;;;;;;-145.18;100.00;46642.81;4834315;29;20049;-75
2022/07/03 02:07:07;;;;;;;9.90;6.90;;;;;;;-145.18;100.00;46642.81;4839064;29;20053;-75
2022/07/03 02:09:48;;;;;;;10.60;6.13;;;;;;;-145.18;100.00;46650.63;4838202;29;20142;-76
2022/07/03 02:12:18;;;;;;;9.13;6.60;;;;;;;-145.18;100.00;46640.88;4832500;29;20492;-75
2022/07/03 02:15:02;;;;;;;10.60;5.50;;;;;;;-145.18;100.00;46640.88;4837331;29;20038;-75
2022/07/03 02:17:35;;;;;;;7.47;5.20;;;;;;;-145.18;100.00;46642.81;4840438;29;20038;-75
2022/07/03 02:20:04;;;;;;;9.67;4.97;;;;;;;-145.18;100.00;46650.63;4838354;29;20514;-75
2022/07/03 02:22:38;;;;;;;7.80;4.60;;;;;;;-145.18;100.00;46650.63;4831356;29;20026;-76
2022/07/03 02:25:08;;;;;;;9.00;4.40;;;;;;;-145.18;100.00;46650.63;4833625;29;20497;-76
2022/07/03 02:27:39;;;;;;;6.57;3.80;;;;;;;-145.18;100.00;46654.53;4840853;29;20034;-75
2022/07/03 02:30:09;;;;;;;8.00;3.93;;;;;;;-145.18;100.00;46652.59;4831754;29;20117;-75
2022/07/03 02:32:47;;;;;;;3.77;2.70;;;;;;;-145.18;100.00;46654.53;4857488;29;20805;-78
2022/07/03 02:35:18;;;;;;;8.83;3.73;;;;;;;-145.18;100.00;46654.53;4857293;29;20049;-76
2022/07/03 02:38:01;;;;;;;7.27;2.80;;;;;;;-145.18;100.00;46654.53;4851166;29;20085;-77
2022/07/03 02:41:02;;;;;;;5.00;2.27;;;;;;;-145.18;100.00;46656.50;4859577;29;20030;-75
2022/07/03 02:43:37;;;;;;;6.27;2.30;;;;;;;-145.18;100.00;46660.41;4849057;29;20049;-75
2022/07/03 02:46:48;;;;;;;4.70;2.38;;;;;;;-145.18;100.00;46660.41;4859568;29;20033;-74
2022/07/03 02:49:01;;;;;;;10.23;2.50;;;;;;;-145.18;100.00;46660.41;4858567;29;20037;-74
2022/07/03 02:51:34;;;;;;;3.77;2.00;;;;;;;-145.18;100.00;46660.41;4859632;29;20173;-74
2022/07/03 02:54:08;;;;;;;7.73;2.57;;;;;;;-145.18;100.00;46660.41;4859067;29;20120;-75
2022/07/03 02:56:52;;;;;;;4.23;2.23;;;;;;;-145.18;100.00;46660.41;4859289;29;20055;-74
2022/07/03 02:59:36;;;;;;;3.30;2.30;;;;;;;-145.18;100.00;46660.41;4859608;29;20030;-74
2022/07/03 03:02:17;;;;;;;7.23;2.50;;;;;;;-145.18;100.00;46660.41;4848597;29;20092;-74
2022/07/03 03:04:51;;;;;;;7.37;2.40;;;;;;;-145.18;100.00;46658.44;4840557;29;20101;-74
2022/07/03 03:07:22;;;;;;;7.00;2.60;;;;;;;-145.18;100.00;46660.41;4840358;29;20041;-74
2022/07/03 03:09:48;;;;;;;6.87;2.50;;;;;;;-145.18;100.00;46660.41;4840707;29;20416;-74
2022/07/03 03:12:14;;;;;;;3.77;2.23;;;;;;;-145.18;100.00;46660.41;4840011;29;20040;-74
2022/07/03 03:14:44;;;;;;;3.43;2.20;;;;;;;-145.18;100.00;46660.41;4840217;29;20029;-74
2022/07/03 03:17:29;;;;;;;3.50;2.27;;;;;;;-145.18;100.00;46660.41;4823824;29;20033;-75
2022/07/03 03:19:59;;;;;;;5.93;2.30;;;;;;;-145.18;100.00;46660.41;4840526;29;20582;-74
2022/07/03 03:22:40;;;;;;;5.83;2.20;;;;;;;-145.18;100.00;46660.41;4839905;29;20029;-74
2022/07/03 03:25:05;;;;;;;7.97;2.23;;;;;;;-145.18;100.00;46660.41;4840592;29;20034;-75
2022/07/03 03:27:31;;;;;;;8.63;2.47;;;;;;;-145.18;100.00;46660.41;4839786;29;20038;-74
2022/07/03 03:29:58;;;;;;;2.93;2.43;;;;;;;-145.18;100.00;46660.41;4824084;29;20030;-74
2022/07/03 03:32:25;;;;;;;5.77;2.30;;;;;;;-145.18;100.00;46660.41;4839934;29;20042;-74
2022/07/03 03:34:51;;;;;;;3.90;2.50;;;;;;;-145.18;100.00;46660.41;4840676;29;20492;-75
2022/07/03 03:37:17;;;;;;;4.97;2.40;;;;;;;-145.18;100.00;46660.41;4839978;29;20041;-77
2022/07/03 03:39:43;;;;;;;6.33;2.40;;;;;;;-145.18;100.00;46660.41;4839995;29;20034;-77
2022/07/03 03:42:08;;;;;;;10.63;3.80;;;;;;;-145.18;100.00;46660.41;4839929;29;20178;-77
2022/07/03 03:44:34;;;;;;;5.50;2.70;;;;;;;-145.18;100.00;46660.41;4839924;29;20113;-79
2022/07/03 03:47:00;;;;;;;7.07;2.87;;;;;;;-145.18;100.00;46660.41;4839353;29;20034;-75
2022/07/03 03:49:25;;;;;;;4.83;2.47;;;;;;;-145.18;100.00;46660.41;4840282;29;20037;-77
2022/07/03 03:51:52;;;;;;;5.33;2.67;;;;;;;-145.18;100.00;46660.41;4839373;29;20053;-77
2022/07/03 03:54:17;;;;;;;5.63;2.87;;;;;;;-145.18;100.00;46660.41;4839979;29;20510;-76
2022/07/03 03:56:43;;;;;;;7.63;2.70;;;;;;;-145.18;100.00;46660.41;4839717;29;20038;-77
2022/07/03 03:59:08;;;;;;;5.80;2.80;;;;;;;-145.18;100.00;46660.41;4839668;29;20038;-75
2022/07/03 04:01:34;;;;;;;5.20;3.20;;;;;;;-145.18;100.00;46660.41;4839755;29;20476;-77
2022/07/03 04:03:59;;;;;;;6.77;3.30;;;;;;;-145.18;100.00;46660.41;4839042;29;20056;-77
2022/07/03 04:06:25;;;;;;;4.87;2.50;;;;;;;-145.18;100.00;46660.41;4839682;29;20050;-77
2022/07/03 04:08:51;;;;;;;5.63;2.70;;;;;;;-145.18;100.00;46660.41;4839007;29;20029;-77
2022/07/03 04:11:16;;;;;;;4.70;2.47;;;;;;;-145.18;100.00;46660.41;4839751;29;20041;-77
2022/07/03 04:13:42;;;;;;;5.67;2.40;;;;;;;-145.18;100.00;46660.41;4839090;29;20475;-77
2022/07/03 04:16:07;;;;;;;10.30;2.80;;;;;;;-145.18;100.00;46660.41;4839456;29;20782;-77
2022/07/03 04:18:32;;;;;;;7.30;3.00;;;;;;;-145.18;100.00;46660.41;4838926;29;20048;-78
2022/07/03 04:20:58;;;;;;;10.20;2.60;;;;;;;-145.18;100.00;46660.41;4838828;29;20042;-76
2022/07/03 04:23:23;;;;;;;3.70;2.43;;;;;;;-145.18;100.00;46660.41;4838938;29;20052;-76
2022/07/03 04:25:49;;;;;;;8.10;2.10;;;;;;;-145.18;100.00;46660.41;4838249;29;20037;-76
2022/07/03 04:28:14;;;;;;;7.37;2.17;;;;;;;-145.18;100.00;46660.41;4838763;29;20061;-77
2022/07/03 04:30:40;;;;;;;7.03;2.20;;;;;;;-145.18;100.00;46660.41;4829700;29;20411;-77
2022/07/03 04:33:05;;;;;;;5.87;2.57;;;;;;;-145.18;100.00;46660.41;4838476;29;20141;-77
2022/07/03 04:35:30;;;;;;;5.47;1.70;;;;;;;-145.18;100.00;46660.41;4839236;29;20046;-76
2022/07/03 04:37:56;;;;;;;4.93;1.60;;;;;;;-145.18;100.00;46660.41;4838373;29;20116;-76
2022/07/03 04:40:21;;;;;;;10.43;2.13;;;;;;;-145.18;100.00;46660.41;4839316;29;20041;-76
2022/07/03 04:42:46;;;;;;;5.77;2.03;;;;;;;-145.18;100.00;46660.41;4842056;29;20038;-77
2022/07/03 04:45:12;;;;;;;5.20;1.77;;;;;;;-145.18;100.00;46660.41;4842220;29;20757;-76
2022/07/03 04:47:37;;;;;;;5.60;2.63;;;;;;;-145.18;100.00;46660.41;4838615;29;20034;-76
2022/07/03 04:50:03;;;;;;;8.50;2.30;;;;;;;-145.18;100.00;46660.41;4827009;29;20541;-76
2022/07/03 04:52:29;;;;;;;7.93;1.93;;;;;;;-145.18;100.00;46660.41;4841351;29;20049;-75
2022/07/03 04:54:54;;;;;;;7.67;2.00;;;;;;;-145.18;100.00;46660.41;4841843;29;20042;-75
2022/07/03 04:57:19;;;;;;;10.60;2.07;;;;;;;-145.18;100.00;46660.41;4842429;29;20120;-76
2022/07/03 04:59:46;;;;;;;5.17;2.00;;;;;;;-145.18;100.00;46660.41;4842617;29;20479;-76
2022/07/03 05:02:11;;;;;;;10.63;2.23;;;;;;;-145.18;100.00;46660.41;4842049;29;20032;-75
2022/07/03 05:04:37;;;;;;;6.70;1.90;;;;;;;-145.18;100.00;46660.41;4840182;29;20038;-75
2022/07/03 05:07:02;;;;;;;9.80;2.60;;;;;;;-145.18;100.00;46660.41;4842096;29;20041;-76
2022/07/03 05:09:27;;;;;;;8.60;2.00;;;;;;;-145.18;100.00;46660.41;4842631;29;20045;-76
2022/07/03 05:11:53;;;;;;;8.87;2.47;;;;;;;-145.18;100.00;46658.44;4842269;29;20452;-77
2022/07/03 05:14:18;;;;;;;5.30;2.30;;;;;;;-145.18;100.00;46660.41;4841849;29;20460;-75
2022/07/03 05:16:44;;;;;;;5.47;2.30;;;;;;;-145.18;100.00;46621.31;4842211;29;20045;-75
2022/07/03 05:19:09;;;;;;;9.87;3.20;;;;;;;-145.18;100.00;46613.50;4841873;29;20399;-75
2022/07/03 05:21:35;;;;;;;6.53;2.00;;;;;;;-145.18;100.00;46617.41;4841890;29;20030;-75
2022/07/03 05:24:00;;;;;;;7.27;2.37;;;;;;;-145.18;100.00;46615.47;4841712;29;20037;-75
2022/07/03 05:26:26;;;;;;;9.10;2.43;;;;;;;-145.18;100.00;46615.47;4825796;29;20045;-75
2022/07/03 05:28:51;;;;;;;6.10;2.20;;;;;;;-145.18;100.00;46619.38;4841407;29;20026;-75
2022/07/03 05:31:16;;;;;;;7.20;2.10;;;;;;;-145.18;100.00;46621.31;4842177;29;20045;-75
2022/07/03 05:33:42;;;;;;;4.83;2.20;;;;;;;-145.18;100.00;46619.38;4841546;29;20048;-75
2022/07/03 05:36:07;;;;;;;4.97;2.33;;;;;;;-145.18;100.00;46617.41;4842095;29;20041;-75
2022/07/03 05:41:17;;;;;;;8.97;2.07;;;;;;;-145.18;100.00;46617.41;4842415;29;20098;-76
2022/07/03 05:43:44;;;;;;;4.40;2.27;;;;;;;-145.18;100.00;46617.41;4838467;29;20042;-75
2022/07/03 05:46:09;;;;;;;11.63;2.23;;;;;;;-145.18;100.00;46617.41;4831286;29;20037;-75
2022/07/03 05:48:35;;;;;;;7.90;2.50;;;;;;;-145.18;100.00;46613.50;4841007;29;20045;-75
2022/07/03 05:51:01;;;;;;;7.70;2.30;;;;;;;-145.18;100.00;46615.47;4839933;29;20117;-75
2022/07/03 05:53:27;;;;;;;6.73;2.27;;;;;;;-145.18;100.00;46619.38;4840270;29;20090;-75
2022/07/03 05:55:52;;;;;;;6.27;2.23;;;;;;;-145.18;100.00;46613.50;4824551;29;20037;-75
2022/07/03 05:58:17;;;;;;;7.50;2.50;;;;;;;-145.18;100.00;46611.56;4841512;29;20049;-75
2022/07/03 06:00:43;;;;;;;8.47;2.37;;;;;;;-145.18;100.00;46613.50;4841108;29;20510;-75
2022/07/03 06:03:09;;;;;;;9.17;2.20;;;;;;;-145.18;100.00;46617.41;4840547;29;20060;-75
2022/07/03 06:05:35;;;;;;;7.53;2.27;;;;;;;-145.18;100.00;46619.38;4840483;29;20079;-74
2022/07/03 06:08:01;;;;;;;7.57;2.07;;;;;;;-145.18;100.00;46617.41;4840906;29;20109;-75
2022/07/03 06:10:27;;;;;;;8.97;2.07;;;;;;;-145.18;100.00;46617.41;4840856;29;20162;-74
2022/07/03 06:12:53;;;;;;;9.43;2.03;;;;;;;-145.18;100.00;46617.41;4840634;29;20030;-74
2022/07/03 06:15:19;;;;;;;7.47;2.20;;;;;;;-145.18;100.00;46621.31;4840121;29;20042;-75
2022/07/03 06:17:44;;;;;;;11.10;2.33;;;;;;;-145.18;100.00;46619.38;4848255;29;20030;-75
2022/07/03 06:20:10;;;;;;;6.97;1.87;;;;;;;-145.18;100.00;46621.31;4840223;29;20034;-75
2022/07/03 06:22:37;;;;;;;7.77;2.07;;;;;;;-145.18;100.00;46619.38;4840380;29;20098;-75
2022/07/03 06:25:02;;;;;;;10.17;2.60;;;;;;;-145.18;100.00;46617.41;4841189;29;20061;-76
2022/07/03 06:27:28;;;;;;;6.10;2.00;;;;;;;-145.18;100.00;46619.38;4840668;29;20472;-75
2022/07/03 06:29:54;;;;;;;7.27;1.90;;;;;;;-145.18;100.00;46617.41;4840765;29;20112;-75
2022/07/03 06:32:19;;;;;;;9.03;2.13;;;;;;;-145.18;100.00;46617.41;4840600;29;20410;-76
2022/07/03 06:34:44;;;;;;;8.47;2.20;;;;;;;-145.18;100.00;46617.41;4840395;29;20065;-77
2022/07/03 06:37:11;;;;;;;9.53;2.40;;;;;;;-145.18;100.00;46617.41;4840971;29;20068;-76
2022/07/03 06:39:36;;;;;;;6.97;2.40;;;;;;;-145.18;100.00;46617.41;4840240;29;20098;-77
2022/07/03 06:42:02;;;;;;;7.47;1.83;;;;;;;-145.18;100.00;46619.38;4840754;29;20033;-76
2022/07/03 06:44:27;;;;;;;7.73;1.97;;;;;;;-145.18;100.00;46619.38;4839745;29;20687;-76
2022/07/03 06:46:53;;;;;;;9.10;2.30;;;;;;;-145.18;100.00;46613.50;4840221;29;20065;-76
2022/07/03 06:49:18;;;;;;;8.60;2.40;;;;;;;-145.18;100.00;46621.31;4839108;29;20503;-76
2022/07/03 06:51:44;;;;;;;9.13;2.27;;;;;;;-145.18;100.00;46613.50;4840247;29;20038;-76
2022/07/03 06:54:09;;;;;;;5.87;1.80;;;;;;;-145.18;100.00;46615.47;4840373;29;20576;-76
2022/07/03 06:56:35;;;;;;;12.63;1.97;;;;;;;-145.18;100.00;46621.31;4840615;29;20090;-76
2022/07/03 06:59:00;;;;;;;10.37;2.33;;;;;;;-145.18;100.00;46617.41;4823308;29;20069;-76
2022/07/03 07:01:25;;;;;;;6.93;2.40;;;;;;;-145.18;100.00;46617.41;4824007;29;20029;-76
2022/07/03 07:03:51;;;;;;;9.13;1.90;;;;;;;-145.18;100.00;46619.38;4839543;29;20053;-76
2022/07/03 07:06:16;;;;;;;7.07;1.67;;;;;;;-145.18;100.00;46623.28;4840485;29;20038;-76
2022/07/03 07:08:41;;;;;;;6.90;1.70;;;;;;;-145.18;100.00;46623.28;4839937;29;20076;-76
2022/07/03 07:11:07;;;;;;;4.10;1.80;;;;;;;-145.18;100.00;46625.22;4840022;29;20484;-76
2022/07/03 07:13:32;;;;;;;8.57;1.77;;;;;;;-145.18;100.00;46629.13;4840008;29;20514;-76
2022/07/03 07:15:58;;;;;;;5.53;2.20;;;;;;;-145.18;100.00;46627.19;4850446;29;20053;-76
2022/07/03 07:18:23;;;;;;;7.20;2.30;;;;;;;-145.18;100.00;46623.28;4840203;29;20109;-76
2022/07/03 07:20:48;;;;;;;6.13;1.80;;;;;;;-145.18;100.00;46627.19;4839676;29;20048;-76
2022/07/03 07:23:14;;;;;;;15.30;3.97;;;;;;;-145.18;100.00;46629.13;4839962;29;20041;-76
2022/07/03 07:25:39;;;;;;;11.07;2.67;;;;;;;-145.18;100.00;46625.22;4839896;29;20042;-76
2022/07/03 07:28:04;;;;;;;5.17;1.97;;;;;;;-145.18;100.00;46631.09;4840029;29;20057;-76
2022/07/03 07:30:30;;;;;;;7.77;2.27;;;;;;;-145.18;100.00;46631.09;4840073;29;20514;-76
2022/07/03 07:32:55;;;;;;;5.27;2.10;;;;;;;-145.18;100.00;46633.06;4839140;29;20634;-76
2022/07/03 07:35:21;;;;;;;4.73;1.87;;;;;;;-145.18;100.00;46633.06;4840035;29;20065;-76
2022/07/03 07:37:48;;;;;;;4.80;1.70;;;;;;;-145.18;100.00;46638.91;4839428;29;20048;-75
2022/07/03 07:40:13;;;;;;;7.23;1.53;;;;;;;-145.18;100.00;46644.78;4840086;29;20030;-76
2022/07/03 07:42:38;;;;;;;3.80;1.47;;;;;;;-145.18;100.00;46642.81;4839406;29;20090;-75
2022/07/03 07:45:04;;;;;;;4.30;1.50;;;;;;;-145.18;100.00;46640.88;4839937;29;20042;-76
2022/07/03 07:47:29;;;;;;;6.60;2.07;;;;;;;-145.18;100.00;46638.91;4849072;29;20052;-76
2022/07/03 07:49:55;;;;;;;6.07;2.00;;;;;;;-145.18;100.00;46644.78;4842821;29;20685;-75
2022/07/03 07:52:22;;;;;;;10.07;2.40;;;;;;;-145.18;100.00;46646.72;4839825;29;20411;-76
2022/07/03 07:54:47;;;;;;;4.53;2.00;;;;;;;-145.18;100.00;46648.69;4838918;29;20046;-76
2022/07/03 07:57:13;;;;;;;8.93;2.87;;;;;;;-145.18;100.00;46650.63;4839997;29;20158;-76
2022/07/03 07:59:38;;;;;;;8.43;2.07;;;;;;;-145.18;100.00;46646.72;4839481;29;20069;-76
2022/07/03 08:07:31;;;;;;;7.37;1.60;;;;;;;-145.18;100.00;46652.59;4840030;29;20102;-75
2022/07/03 08:09:56;;;;;;;5.97;1.30;;;;;;;-145.18;100.00;46648.69;4839035;29;20037;-76
2022/07/03 08:12:22;;;;;;;4.57;1.03;;;;;;;-145.18;100.00;46658.44;4843715;29;20517;-76
2022/07/03 08:14:47;;;;;;;4.67;1.50;;;;;;;-145.18;100.00;46654.53;4846080;29;20512;-76
2022/07/03 08:17:12;;;;;;;5.83;1.60;;;;;;;-145.18;100.00;46654.53;4839195;29;20086;-76
2022/07/03 08:19:38;;;;;;;8.50;1.70;;;;;;;-145.18;100.00;46648.69;4839042;29;20033;-76
2022/07/03 08:22:04;;;;;;;5.73;1.97;;;;;;;-145.18;100.00;46652.59;4823145;29;20588;-75
2022/07/03 08:24:29;;;;;;;8.53;1.90;;;;;;;-145.18;100.00;46648.69;4839135;29;20480;-76
2022/07/03 08:26:54;;;;;;;6.93;1.90;;;;;;;-145.18;100.00;46656.50;4839373;29;20085;-76
2022/07/03 08:29:20;;;;;;;7.17;1.97;;;;;;;-145.18;100.00;46652.59;4839146;29;20444;-76
2022/07/03 08:31:45;;;;;;;7.07;1.90;;;;;;;-145.18;100.00;46658.44;4839354;29;20074;-75
2022/07/03 08:34:13;;;;;;;4.87;1.50;;;;;;;-145.18;100.00;46656.50;4839098;29;20038;-75
2022/07/03 08:36:43;;;;;;;20.33;2.17;;;;;;;-145.18;100.00;46654.53;4838890;29;20105;-75
2022/07/03 08:39:09;;;;;;;5.57;1.60;;;;;;;-145.18;100.00;46660.41;4836617;29;20030;-74
2022/07/03 08:41:37;;;;;;;7.83;1.30;;;;;;;-145.18;100.00;46656.50;4850747;29;20080;-76
2022/07/03 08:44:04;;;;;;;4.57;1.40;;;;;;;-145.18;100.00;46648.69;4828851;29;20484;-76
2022/07/03 08:46:31;;;;;;;5.80;1.50;;;;;;;-145.18;100.00;46652.59;4822342;29;20101;-76
2022/07/03 08:48:58;;;;;;;4.53;1.30;;;;;;;-145.18;100.00;46654.53;4833119;29;20034;-76
2022/07/03 08:51:24;;;;;;;12.57;1.87;;;;;;;-145.18;100.00;46652.59;4820322;29;20034;-75
2022/07/03 08:53:53;;;;;;;6.40;1.67;;;;;;;-145.18;100.00;46654.53;4825708;29;20542;-76
2022/07/03 08:56:19;;;;;;;4.77;1.40;;;;;;;-145.18;100.00;46654.53;4839266;29;20429;-76
2022/07/03 08:58:45;;;;;;;4.50;1.37;;;;;;;-145.18;100.00;46654.53;4838464;29;20038;-76
2022/07/03 09:01:17;;;;;;;5.77;1.50;;;;;;;-145.18;100.00;46652.59;4839089;29;20038;-76
2022/07/03 09:03:43;;;;;;;4.47;1.47;;;;;;;-145.18;100.00;46662.34;4838186;29;20037;-77
2022/07/03 09:06:08;;;;;;;6.33;1.63;;;;;;;-145.18;100.00;46660.41;4822755;29;20523;-76
2022/07/03 09:08:36;;;;;;;6.30;1.93;;;;;;;-145.18;100.00;46648.69;4838765;29;20038;-76
2022/07/03 09:11:02;;;;;;;4.53;1.67;;;;;;;-145.18;100.00;46636.94;4839038;29;20033;-77
2022/07/03 09:13:27;;;;;;;3.50;1.20;;;;;;;-145.18;100.00;46631.09;4838858;29;20536;-76
2022/07/03 09:15:53;;;;;;;5.43;1.77;;;;;;;-145.18;100.00;46568.59;4822390;29;20030;-76
2022/07/03 09:18:37;;;;;;;2.53;1.30;;;;;;;-145.18;100.00;46531.47;4838425;29;20045;-76
2022/07/03 09:21:03;;;;;;;6.07;1.33;;;;;;;-145.18;100.00;46535.38;4839051;29;20395;-77
2022/07/03 09:23:36;;;;;;;6.07;1.40;;;;;;;-145.18;100.00;46541.25;4837468;29;20041;-77
2022/07/03 09:26:03;;;;;;;3.30;1.27;;;;;;;-145.18;100.00;46533.44;4838175;29;20147;-77
2022/07/03 09:28:46;;;;;;;6.40;1.60;;;;;;;-145.18;100.00;46541.25;4840183;29;20393;-77
2022/07/03 09:31:13;;;;;;;3.50;1.30;;;;;;;-145.18;100.00;46535.38;4841142;29;20032;-77
2022/07/03 09:33:58;;;;;;;4.50;1.30;;;;;;;-145.18;100.00;46527.56;4840959;29;20030;-78
2022/07/03 09:36:43;;;;;;;5.47;1.40;;;;;;;-145.18;100.00;46535.38;4841964;29;20097;-77
2022/07/03 09:39:25;;;;;;;4.23;1.30;;;;;;;-145.18;100.00;46531.47;4841695;29;20045;-76
2022/07/03 09:41:55;;;;;;;2.57;1.10;;;;;;;-145.18;100.00;46549.06;4839342;29;20038;-76
2022/07/03 09:44:37;;;;;;;8.33;1.90;;;;;;;-145.18;100.00;46547.09;4828071;29;20053;-77
2022/07/03 09:47:16;;;;;;;3.00;1.90;;;;;;;-145.18;100.00;46545.16;4828802;29;20112;-76
2022/07/03 09:50:04;;;;;;;2.07;1.20;;;;;;;-145.18;100.00;46525.63;4840641;29;20059;-77
2022/07/03 09:52:40;;;;;;;4.87;1.27;;;;;;;-145.18;100.00;46531.47;4841265;29;20049;-76
2022/07/03 09:55:08;;;;;;;3.33;1.50;;;;;;;-145.18;100.00;46519.75;4837513;29;20057;-76
2022/07/03 09:57:34;;;;;;;4.67;1.47;;;;;;;-145.18;100.00;46527.56;4840930;29;20117;-76
2022/07/03 10:00:24;;;;;;;3.33;1.20;;;;;;;-145.18;100.00;46521.72;4840171;29;20120;-76
2022/07/03 10:03:06;;;;;;;4.10;1.40;;;;;;;-145.18;100.00;46543.19;4837711;29;20046;-76
2022/07/03 10:05:39;;;;;;;6.50;1.57;;;;;;;-145.18;100.00;46543.19;4840695;29;20042;-76
2022/07/03 10:08:06;;;;;;;4.10;1.80;;;;;;;-145.18;100.00;46543.19;4840389;29;20125;-77
2022/07/03 10:10:37;;;;;;;3.30;1.50;;;;;;;-145.18;100.00;46543.19;4840699;29;20079;-76
2022/07/03 10:13:04;;;;;;;5.97;2.10;;;;;;;-145.18;100.00;46527.56;4840617;29;20480;-76
2022/07/03 10:15:31;;;;;;;7.90;1.77;;;;;;;-145.18;100.00;46531.47;4841065;29;20067;-76
2022/07/03 10:17:58;;;;;;;7.07;1.83;;;;;;;-145.18;100.00;46543.19;4840157;29;20126;-76
2022/07/03 10:20:26;;;;;;;7.50;2.20;;;;;;;-145.18;100.00;46533.44;4840104;29;20436;-77
2022/07/03 10:22:52;;;;;;;5.63;1.73;;;;;;;-145.18;100.00;46533.44;4840430;29;20069;-76
2022/07/03 10:25:18;;;;;;;4.67;1.33;;;;;;;-145.18;100.00;46576.41;4839740;29;20042;-76
2022/07/03 10:27:47;;;;;;;7.07;1.80;;;;;;;-145.18;100.00;46562.72;4840087;29;20030;-76
2022/07/03 10:30:21;;;;;;;5.63;1.80;;;;;;;-145.18;100.00;46562.72;4839821;29;20067;-77
2022/07/03 10:32:49;;;;;;;5.00;1.87;;;;;;;-145.18;100.00;46539.28;4840377;29;20078;-77
2022/07/03 10:35:20;;;;;;;4.13;2.27;;;;;;;-145.18;100.00;46537.34;4840056;29;20480;-76
2022/07/03 10:38:01;;;;;;;6.77;1.93;;;;;;;-145.18;100.00;46545.16;4840666;29;20514;-76
2022/07/03 10:46:29;;;;;;;6.80;2.07;;;;;;;-145.18;100.00;46541.25;4840668;29;20463;-76
2022/07/03 10:48:55;;;;;;;3.43;1.50;;;;;;;-145.18;100.00;46539.28;4839690;29;20034;-76
2022/07/03 10:51:21;;;;;;;4.47;1.53;;;;;;;-145.18;100.00;46533.44;4840221;29;20154;-76
2022/07/03 10:53:47;;;;;;;2.40;1.10;;;;;;;-145.18;100.00;46531.47;4839917;29;20054;-76
2022/07/03 10:56:14;;;;;;;4.60;1.50;;;;;;;-145.18;100.00;46539.28;4840711;29;20037;-76
2022/07/03 10:59:00;;;;;;;2.03;0.93;;;;;;;-145.18;100.00;46564.69;4840000;29;20073;-76
2022/07/03 11:01:27;;;;;;;1.67;1.10;;;;;;;-145.18;100.00;46586.16;4840374;29;20030;-76
2022/07/03 11:04:02;;;;;;;2.83;1.40;;;;;;;-145.18;100.00;46592.03;4823230;29;20396;-76
2022/07/03 11:06:42;;;;;;;5.33;1.80;;;;;;;-145.18;100.00;46574.44;4840444;29;20053;-76
2022/07/03 11:09:17;;;;;;;3.40;1.10;;;;;;;-145.18;100.00;46566.63;4840007;29;20286;-76
2022/07/03 11:11:56;;;;;;;4.57;1.47;;;;;;;-145.18;100.00;46570.53;4840239;29;20042;-76
2022/07/03 11:14:26;;;;;;;3.63;1.27;;;;;;;-145.18;100.00;46551.00;4835435;29;20432;-77
2022/07/03 11:17:20;;;;;;;2.73;1.50;;;;;;;-145.18;100.00;46521.72;4837223;29;20411;-74
2022/07/03 11:23:02;;;;;;;2.57;1.00;;;;;;;-145.18;100.00;47064.75;4838203;29;20045;-76
2022/07/03 11:25:41;;;;;;;4.90;1.20;;;;;;;-145.18;100.00;47111.66;4835028;29;20549;-77
2022/07/03 11:28:06;;;;;;;4.07;1.33;;;;;;;-145.18;100.00;47047.19;4836827;29;20403;-76
2022/07/03 11:30:32;;;;;;;5.13;1.27;;;;;;;-145.18;100.00;47029.59;4837987;29;20045;-76
2022/07/03 11:32:59;;;;;;;2.43;1.13;;;;;;;-145.18;100.00;47029.59;4838221;29;20118;-73
2022/07/03 11:35:49;;;;;;;4.50;1.10;;;;;;;-145.18;100.00;47012.00;4839822;29;20037;-76
2022/07/03 11:38:21;;;;;;;2.10;1.17;;;;;;;-145.18;100.00;47010.06;4839826;29;20022;-76
2022/07/03 11:40:50;;;;;;;4.90;1.17;;;;;;;-145.18;100.00;47037.41;4839768;29;20098;-76
2022/07/03 11:43:16;;;;;;;2.13;1.00;;;;;;;-145.18;100.00;47045.22;4823892;29;20090;-76
2022/07/03 11:45:41;;;;;;;4.20;1.00;;;;;;;-145.18;100.00;47074.53;4839473;29;20029;-76
2022/07/03 11:48:13;;;;;;;3.07;1.17;;;;;;;-145.18;100.00;47006.16;4839968;29;20498;-76
2022/07/03 11:50:40;;;;;;;4.13;0.90;;;;;;;-145.18;100.00;47070.63;4838216;29;20510;-73
2022/07/03 11:53:23;;;;;;;4.43;1.20;;;;;;;-145.18;100.00;46988.56;4839895;29;20036;-73
2022/07/03 11:56:01;;;;;;;2.03;1.13;;;;;;;-145.18;100.00;46992.47;4839583;29;20104;-76
2022/07/03 11:58:42;;;;;;;2.87;1.10;;;;;;;-145.18;100.00;46988.56;4839562;29;20033;-76
2022/07/03 12:01:26;;;;;;;3.40;1.10;;;;;;;-145.18;100.00;46972.94;4839863;29;20033;-76
2022/07/03 12:04:03;;;;;;;5.03;1.10;;;;;;;-145.18;100.00;46971.00;4838771;29;20077;-76
2022/07/03 12:06:49;;;;;;;3.90;1.00;;;;;;;-145.18;100.00;46949.50;4839796;29;20449;-76
2022/07/03 12:09:17;;;;;;;3.05;1.30;;;;;;;-145.18;100.00;47002.25;4839164;29;20030;-76
2022/07/03 12:12:11;;;;;;;9.77;1.97;;;;;;;-145.18;100.00;47109.69;4839242;29;20387;-75
2022/07/03 12:14:44;;;;;;;5.87;1.70;;;;;;;-145.18;100.00;47055.00;4838466;29;20045;-75
2022/07/03 12:17:12;;;;;;;4.40;2.00;;;;;;;-145.18;100.00;47080.38;4839590;29;20026;-75
2022/07/03 12:19:43;;;;;;;3.17;1.50;;;;;;;-145.18;100.00;47031.53;4839012;29;20033;-75
2022/07/03 12:22:08;;;;;;;11.57;1.80;;;;;;;-145.18;100.00;47117.50;4839352;29;20026;-75
2022/07/03 12:24:34;;;;;;;2.93;1.30;;;;;;;-145.18;100.00;47121.41;4822760;29;20066;-75
2022/07/03 12:27:02;;;;;;;5.50;1.40;;;;;;;-145.18;100.00;47115.56;4839317;29;20042;-75
2022/07/03 12:29:28;;;;;;;3.37;1.27;;;;;;;-145.18;100.00;47117.50;4851961;29;20488;-75
2022/07/03 12:31:53;;;;;;;3.03;1.20;;;;;;;-145.18;100.00;47097.97;4839183;29;20049;-75
2022/07/03 12:34:19;;;;;;;3.23;1.23;;;;;;;-145.18;100.00;47076.47;4838903;29;20041;-75
2022/07/03 12:36:58;;;;;;;2.80;1.23;;;;;;;-145.18;100.00;47185.88;4839235;29;20396;-75
2022/07/03 12:39:40;;;;;;;4.73;1.53;;;;;;;-145.18;100.00;47164.38;4839114;29;20556;-75
2022/07/03 12:42:20;;;;;;;3.20;1.63;;;;;;;-145.18;100.00;47135.09;4839556;29;20030;-75
2022/07/03 12:45:04;;;;;;;4.10;1.50;;;;;;;-145.18;100.00;46715.09;4838592;29;20054;-75
2022/07/03 12:47:31;;;;;;;4.47;1.33;;;;;;;-145.18;100.00;46590.06;4839374;29;20556;-75
2022/07/03 12:50:00;;;;;;;4.53;1.27;;;;;;;-145.18;100.00;46592.03;4838616;29;20045;-75
2022/07/03 12:52:30;;;;;;;4.40;1.40;;;;;;;-145.18;100.00;46797.13;4839161;29;20041;-74
2022/07/03 12:54:56;;;;;;;4.20;1.47;;;;;;;-145.18;100.00;46967.09;4838607;29;20046;-75
2022/07/03 13:00:12;;;;;;;5.97;1.30;;;;;;;-145.18;100.00;47158.53;4838836;29;20392;-75
2022/07/03 13:02:41;;;;;;;3.83;1.60;;;;;;;-145.18;100.00;47203.47;4840674;29;20435;-75
2022/07/03 13:05:23;;;;;;;2.77;1.60;;;;;;;-145.18;100.00;47045.22;4842303;29;20129;-75
2022/07/03 13:07:51;;;;;;;9.93;1.60;;;;;;;-145.18;100.00;47160.47;4842591;29;20030;-75
2022/07/03 13:10:18;;;;;;;4.90;1.40;;;;;;;-145.18;100.00;47012.00;4843657;29;20034;-76
2022/07/03 13:12:57;;;;;;;2.03;1.10;;;;;;;-145.18;100.00;46586.16;4853656;29;20484;-75
2022/07/03 13:15:27;;;;;;;5.03;1.27;;;;;;;-145.18;100.00;46599.84;4855026;29;20479;-75
2022/07/03 13:17:58;;;;;;;6.83;1.83;;;;;;;-145.18;100.00;46568.59;4842292;29;20050;-75
2022/07/03 13:20:30;;;;;;;5.77;1.60;;;;;;;-145.18;100.00;46543.19;4842012;29;20113;-75
2022/07/03 13:23:04;;;;;;;4.17;1.27;;;;;;;-145.18;100.00;46568.59;4842139;29;20106;-74
2022/07/03 13:25:31;;;;;;;11.37;1.70;;;;;;;-145.18;100.00;47012.00;4841953;29;20399;-75
2022/07/03 13:28:13;;;;;;;4.47;1.77;;;;;;;-145.18;100.00;47004.19;4842083;29;20050;-75
2022/07/03 13:30:40;;;;;;;1.90;1.03;;;;;;;-145.18;100.00;47160.47;4841252;29;20158;-74
2022/07/03 13:33:07;;;;;;;3.77;1.10;;;;;;;-145.18;100.00;46711.19;4842444;29;20454;-75
2022/07/03 13:35:33;;;;;;;1.20;1.00;;;;;;;-145.18;100.00;46592.03;4841860;29;20113;-75
2022/07/03 13:37:58;;;;;;;5.93;1.17;;;;;;;-145.18;100.00;46588.13;4841911;29;20125;-75
2022/07/03 13:40:24;;;;;;;3.70;1.20;;;;;;;-145.18;100.00;46582.25;4841902;29;20041;-75
2022/07/03 13:42:50;;;;;;;3.80;1.13;;;;;;;-145.18;100.00;46593.97;4841619;29;20030;-75